Etusivu
METAR-TAF:

METAR-TAF

Lentoasemat :

Tanger, Marokko

Leveyspiiri: 35-44N, Pituuspiiri: 005-54W, korkeus merenpinnasta: 19 m

Tämänhetkinen sää

Tämä raportti tehtiin 38 minuuttia sitten, kello 12.00 UTC
Tuuli 23 kn idästä
Lämpötila 29°C
Kosteus 48%
Ilmanpaine 1014 hPa
Näkyvyys 10 km tai enemmän
ei pilviä alle 1500 m:ssä eikä cumulonimbus-pilviä

METAR: GMTT 251200Z 08023KT CAVOK 29/17 Q1014 NOSIG

Aika: 13:38 (12:38 UTC)

Sääennuste

Tämä raportti tehtiin 1 tunti ja 38 minuuttia sitten, kello 11.00 UTC
Ennuste voimassa 25. päivästä klo 12 UTC - 26. päivään klo 18 UTC
Tuuli 24 kn idästä/koillisesta
Näkyvyys 10 km tai enemmän
ei pilviä alle 1500 m:ssä eikä cumulonimbus-pilviä
Tulossa
25. päivästä klo 15 UTC - 25. päivään klo 18 UTC
Tuuli 8 kn idästä/koillisesta

TAF: GMTT 251100Z 2512/2618 07024KT CAVOK BECMG 2515/2518 07008KT

Säähavainnot ja -ennusteet yli 4000 lentoasemalta (METAR- ja TAF-raportit).

Käytössä olevat sääasemat on merkitty karttaan keltaisilla ja punaisilla pisteillä.

Aseta hiiri pisteen päälle nähdäksesi sääaseman nimen.

Klikkaa sitten nähdäksesi säähavainnot ja -ennusteet.

Kartan vaihtaminen: klikkaa mustalla rastilla varustettuja vihreitä pisteitä, niin voit zoomata sisään; viivalla varustettua vihreää pistettä, niin voit zoomata ulos tai vihreitä nuolia, niin pääset viereisille kartoille.


METAR-TAF: